createdAt,value
2022-09-24T00:01:12.724Z,8.63
2022-09-24T00:02:48.435Z,9.00
2022-09-24T00:04:21.954Z,8.83
2022-09-24T00:05:54.240Z,8.60
2022-09-24T00:07:28.632Z,8.13
2022-09-24T00:09:00.924Z,8.60
2022-09-24T00:10:38.377Z,9.00
2022-09-24T00:12:13.240Z,9.27
2022-09-24T00:13:45.399Z,8.73
2022-09-24T00:15:18.523Z,8.97
2022-09-24T00:16:51.532Z,8.97
2022-09-24T00:18:23.592Z,8.93
2022-09-24T00:19:56.596Z,8.20
2022-09-24T00:21:31.280Z,8.60
2022-09-24T00:23:05.724Z,8.53
2022-09-24T00:24:57.615Z,8.47
2022-09-24T00:26:48.297Z,8.90
2022-09-24T00:28:21.314Z,9.00
2022-09-24T00:29:54.335Z,8.80
2022-09-24T00:31:28.049Z,8.57
2022-09-24T00:33:01.101Z,9.10
2022-09-24T00:34:34.444Z,8.60
2022-09-24T00:36:07.653Z,8.93
2022-09-24T00:37:40.695Z,9.87
2022-09-24T00:39:15.669Z,9.53
2022-09-24T00:40:48.752Z,9.40
2022-09-24T00:42:22.790Z,9.20
2022-09-24T00:43:55.925Z,9.33
2022-09-24T00:45:31.183Z,8.60
2022-09-24T00:47:03.434Z,8.77
2022-09-24T00:48:39.877Z,8.53
2022-09-24T00:50:23.519Z,8.87
2022-09-24T00:51:55.796Z,9.37
2022-09-24T00:53:33.115Z,9.00
2022-09-24T00:55:09.411Z,8.27
2022-09-24T00:56:45.159Z,8.40
2022-09-24T00:58:19.212Z,9.03
2022-09-24T00:59:51.490Z,9.07
2022-09-24T01:01:26.580Z,9.33
2022-09-24T01:03:03.644Z,9.03
2022-09-24T01:04:36.673Z,8.93
2022-09-24T01:06:10.521Z,8.77
2022-09-24T01:07:42.628Z,8.20
2022-09-24T01:09:16.021Z,9.30
2022-09-24T01:11:23.695Z,8.73
2022-09-24T01:13:03.602Z,9.10
2022-09-24T01:14:48.950Z,8.67
2022-09-24T01:16:33.979Z,8.40
2022-09-24T01:18:13.801Z,9.03
2022-09-24T01:20:18.982Z,8.57
2022-09-24T01:21:56.324Z,7.73
2022-09-24T01:23:50.007Z,8.47
2022-09-24T01:25:30.436Z,8.37
2022-09-24T01:27:11.341Z,8.10
2022-09-24T01:28:57.870Z,8.23
2022-09-24T01:30:34.994Z,8.17
2022-09-24T01:32:12.724Z,8.63
2022-09-24T01:33:53.387Z,8.53
2022-09-24T01:35:33.025Z,8.67
2022-09-24T01:37:05.347Z,8.80
2022-09-24T01:38:44.253Z,8.03
2022-09-24T01:40:19.848Z,8.07
2022-09-24T01:41:53.608Z,8.57
2022-09-24T01:43:30.118Z,8.57
2022-09-24T01:45:05.002Z,8.77
2022-09-24T01:46:41.056Z,8.50
2022-09-24T01:48:14.215Z,8.80
2022-09-24T01:49:46.938Z,8.93
2022-09-24T01:51:24.581Z,8.67
2022-09-24T01:53:03.114Z,8.83
2022-09-24T01:54:41.734Z,9.13
2022-09-24T01:56:19.684Z,8.90
2022-09-24T01:57:59.630Z,8.33
2022-09-24T01:59:37.685Z,8.10
2022-09-24T02:01:27.464Z,8.27
2022-09-24T02:03:08.742Z,9.43
2022-09-24T02:04:45.294Z,8.93
2022-09-24T02:06:21.816Z,9.67
2022-09-24T02:07:59.212Z,9.50
2022-09-24T02:09:34.552Z,8.93
2022-09-24T02:11:14.706Z,8.77
2022-09-24T02:12:52.559Z,9.90
2022-09-24T02:14:25.418Z,8.43
2022-09-24T02:16:03.255Z,9.23
2022-09-24T02:17:38.384Z,8.90
2022-09-24T02:19:16.152Z,9.10
2022-09-24T02:20:51.593Z,9.13
2022-09-24T02:22:26.256Z,9.90
2022-09-24T02:24:06.178Z,9.07
2022-09-24T02:25:42.317Z,8.97
2022-09-24T02:27:15.669Z,8.63
2022-09-24T02:28:47.767Z,8.03
2022-09-24T02:30:20.924Z,9.10
2022-09-24T02:31:55.696Z,9.27
2022-09-24T02:33:49.120Z,8.60
2022-09-24T02:35:24.343Z,8.03
2022-09-24T02:37:01.047Z,8.53
2022-09-24T02:38:33.311Z,8.50
2022-09-24T02:40:09.273Z,8.90
2022-09-24T02:41:43.112Z,8.70
2022-09-24T02:43:16.170Z,8.30
2022-09-24T02:44:49.423Z,8.57
2022-09-24T02:46:21.579Z,8.10
2022-09-24T02:47:54.622Z,8.03
2022-09-24T02:49:27.989Z,8.37
2022-09-24T02:51:01.378Z,8.60
2022-09-24T02:52:34.421Z,8.90
2022-09-24T02:54:06.931Z,8.50
2022-09-24T02:55:39.989Z,8.33
2022-09-24T02:57:13.007Z,8.57
2022-09-24T02:58:45.071Z,8.43
2022-09-24T03:00:21.087Z,8.77
2022-09-24T03:01:54.224Z,8.83
2022-09-24T03:03:27.062Z,8.70
2022-09-24T03:05:00.145Z,8.50
2022-09-24T03:06:34.888Z,8.60
2022-09-24T03:08:08.177Z,8.90
2022-09-24T03:09:41.204Z,9.03
2022-09-24T03:11:18.571Z,9.13
2022-09-24T03:12:51.964Z,9.13
2022-09-24T03:14:25.066Z,9.13
2022-09-24T03:15:58.174Z,9.90
2022-09-24T03:17:31.320Z,9.50
2022-09-24T03:19:04.397Z,10.10
2022-09-24T03:20:37.466Z,9.13
2022-09-24T03:22:11.895Z,9.93
2022-09-24T03:23:45.525Z,9.30
2022-09-24T03:25:18.746Z,9.17
2022-09-24T03:26:51.766Z,10.20
2022-09-24T03:28:24.333Z,8.73
2022-09-24T03:30:14.668Z,8.97
2022-09-24T03:31:47.759Z,9.00
2022-09-24T03:33:19.884Z,9.10
2022-09-24T03:34:52.921Z,9.73
2022-09-24T03:36:27.210Z,9.80
2022-09-24T03:38:00.616Z,9.80
2022-09-24T03:39:33.679Z,9.67
2022-09-24T03:41:07.843Z,9.80
2022-09-24T03:42:40.915Z,10.17
2022-09-24T03:44:13.945Z,9.93
2022-09-24T03:45:46.995Z,10.60
2022-09-24T03:47:20.014Z,10.23
2022-09-24T03:48:53.069Z,10.10
2022-09-24T03:50:26.102Z,10.73
2022-09-24T03:51:59.297Z,10.73
2022-09-24T03:53:33.839Z,10.17
2022-09-24T03:55:07.460Z,10.67
2022-09-24T03:56:40.496Z,10.20
2022-09-24T03:58:13.121Z,10.00
2022-09-24T03:59:47.270Z,10.33
2022-09-24T04:01:22.108Z,10.27
2022-09-24T04:02:55.605Z,10.20
2022-09-24T04:04:28.676Z,9.80
2022-09-24T04:06:01.727Z,9.90
2022-09-24T04:07:34.990Z,10.20
2022-09-24T04:09:10.551Z,10.07
2022-09-24T04:10:45.124Z,9.77
2022-09-24T04:12:18.180Z,9.67
2022-09-24T04:13:51.579Z,9.90
2022-09-24T04:15:24.433Z,9.77
2022-09-24T04:16:57.457Z,9.90
2022-09-24T04:18:30.561Z,9.83
2022-09-24T04:20:03.750Z,8.90
2022-09-24T04:21:36.840Z,9.93
2022-09-24T04:23:10.986Z,9.67
2022-09-24T04:24:46.103Z,9.50
2022-09-24T04:26:20.787Z,9.57
2022-09-24T04:27:55.854Z,9.87
2022-09-24T04:29:27.916Z,9.20
2022-09-24T04:31:01.060Z,9.30
2022-09-24T04:32:34.134Z,9.63
2022-09-24T04:34:07.369Z,9.60
2022-09-24T04:35:40.477Z,9.67
2022-09-24T04:37:13.490Z,9.67
2022-09-24T04:38:47.187Z,9.53
2022-09-24T04:40:20.597Z,9.77
2022-09-24T04:41:53.709Z,9.87
2022-09-24T04:43:26.734Z,9.77
2022-09-24T04:44:59.798Z,9.30
2022-09-24T04:46:34.304Z,8.97
2022-09-24T04:48:07.561Z,9.60
2022-09-24T04:49:40.645Z,9.63
2022-09-24T04:51:13.734Z,9.77
2022-09-24T04:52:45.769Z,9.70
2022-09-24T04:54:18.832Z,9.83
2022-09-24T04:55:53.219Z,9.60
2022-09-24T04:57:26.305Z,9.80
2022-09-24T04:58:59.740Z,9.40
2022-09-24T05:00:33.452Z,9.83
2022-09-24T05:02:09.784Z,9.70
2022-09-24T05:03:43.337Z,10.10
2022-09-24T05:05:16.516Z,9.93
2022-09-24T05:06:49.574Z,9.30
2022-09-24T05:08:22.634Z,9.13
2022-09-24T05:09:55.723Z,9.63
2022-09-24T05:11:30.155Z,10.40
2022-09-24T05:13:03.249Z,10.33
2022-09-24T05:14:36.327Z,9.00
2022-09-24T05:16:09.427Z,9.83
2022-09-24T05:17:41.599Z,9.77
2022-09-24T05:19:14.645Z,9.27
2022-09-24T05:20:47.737Z,9.07
2022-09-24T05:22:20.984Z,9.37
2022-09-24T05:23:54.018Z,8.63
2022-09-24T05:25:27.194Z,8.70
2022-09-24T05:27:10.259Z,9.23
2022-09-24T05:28:42.885Z,8.40
2022-09-24T05:30:17.276Z,8.23
2022-09-24T05:31:50.698Z,8.93
2022-09-24T05:33:23.829Z,8.00
2022-09-24T05:34:56.898Z,7.70
2022-09-24T05:36:30.029Z,7.53
2022-09-24T05:38:03.067Z,7.80
2022-09-24T05:39:35.177Z,7.50
2022-09-24T05:41:08.646Z,7.63
2022-09-24T05:42:43.119Z,7.23
2022-09-24T05:44:16.194Z,6.90
2022-09-24T05:45:50.624Z,7.27
2022-09-24T05:47:23.821Z,7.60
2022-09-24T05:48:57.183Z,7.83
2022-09-24T05:50:30.989Z,7.50
2022-09-24T05:52:04.327Z,7.50
2022-09-24T05:53:37.519Z,7.17
2022-09-24T05:55:12.001Z,7.87
2022-09-24T05:56:45.800Z,7.70
2022-09-24T05:58:20.667Z,7.57
2022-09-24T05:59:54.432Z,8.07
2022-09-24T06:01:29.939Z,7.93
2022-09-24T06:03:06.651Z,8.43
2022-09-24T06:04:39.804Z,8.30
2022-09-24T06:06:12.869Z,7.50
2022-09-24T06:07:45.908Z,8.03
2022-09-24T06:09:18.983Z,7.90
2022-09-24T06:10:51.101Z,8.13
2022-09-24T06:12:24.294Z,7.90
2022-09-24T06:13:58.742Z,7.67
2022-09-24T06:15:32.052Z,7.70
2022-09-24T06:17:05.187Z,8.10
2022-09-24T06:18:40.053Z,8.27
2022-09-24T06:20:13.850Z,8.20
2022-09-24T06:21:48.296Z,8.30
2022-09-24T06:23:21.586Z,8.23
2022-09-24T06:24:54.624Z,8.40
2022-09-24T06:26:28.345Z,8.07
2022-09-24T06:28:02.755Z,7.80
2022-09-24T06:29:37.193Z,8.87
2022-09-24T06:31:10.704Z,8.60
2022-09-24T06:32:43.894Z,8.10
2022-09-24T06:34:16.938Z,7.70
2022-09-24T06:35:50.035Z,7.80
2022-09-24T06:37:23.495Z,8.57
2022-09-24T06:38:58.534Z,7.90
2022-09-24T06:40:36.468Z,7.87
2022-09-24T06:42:10.803Z,7.40
2022-09-24T06:43:43.833Z,6.90
2022-09-24T06:45:18.508Z,7.10
2022-09-24T06:46:52.573Z,6.70
2022-09-24T06:48:26.501Z,6.83
2022-09-24T06:49:59.574Z,7.00
2022-09-24T06:51:32.613Z,6.53
2022-09-24T06:53:07.323Z,7.20
2022-09-24T06:54:40.358Z,7.20
2022-09-24T06:56:13.792Z,7.53
2022-09-24T06:57:45.913Z,6.97
2022-09-24T06:59:18.976Z,8.23
2022-09-24T07:00:55.417Z,7.63
2022-09-24T07:02:28.656Z,7.50
2022-09-24T07:04:02.062Z,7.70
2022-09-24T07:05:39.711Z,7.53
2022-09-24T07:07:30.468Z,7.50
2022-09-24T07:09:03.515Z,6.50
2022-09-24T07:10:35.585Z,7.13
2022-09-24T07:12:08.787Z,6.67
2022-09-24T07:13:41.839Z,6.30
2022-09-24T07:15:14.906Z,6.73
2022-09-24T07:16:50.046Z,7.23
2022-09-24T07:18:23.202Z,7.50
2022-09-24T07:19:56.533Z,7.07
2022-09-24T07:21:30.266Z,6.17
2022-09-24T07:23:03.805Z,6.80
2022-09-24T07:24:36.845Z,7.00
2022-09-24T07:26:09.859Z,7.20
2022-09-24T07:27:41.892Z,6.73
2022-09-24T07:29:14.916Z,7.00
2022-09-24T07:30:47.956Z,7.47
2022-09-24T07:32:27.451Z,7.37
2022-09-24T07:34:02.776Z,7.23
2022-09-24T07:35:38.861Z,6.53
2022-09-24T07:37:11.917Z,6.70
2022-09-24T07:38:44.955Z,7.03
2022-09-24T07:40:18.156Z,6.90
2022-09-24T07:41:52.239Z,6.43
2022-09-24T07:43:25.324Z,6.87
2022-09-24T07:44:59.098Z,6.60
2022-09-24T07:46:32.207Z,6.67
2022-09-24T07:48:07.907Z,6.30
2022-09-24T07:49:42.400Z,6.80
2022-09-24T07:51:16.382Z,6.57
2022-09-24T07:52:51.533Z,6.40
2022-09-24T07:54:24.730Z,6.87
2022-09-24T07:56:00.539Z,6.63
2022-09-24T07:57:33.591Z,6.77
2022-09-24T07:59:07.369Z,6.57
2022-09-24T08:00:40.725Z,6.43
2022-09-24T08:02:18.905Z,6.60
2022-09-24T08:03:54.532Z,5.97
2022-09-24T08:05:27.777Z,6.70
2022-09-24T08:07:01.175Z,6.37
2022-09-24T08:08:34.346Z,6.37
2022-09-24T08:10:08.083Z,6.50
2022-09-24T08:11:41.093Z,6.07
2022-09-24T08:13:14.372Z,6.50
2022-09-24T08:14:47.441Z,6.47
2022-09-24T08:16:21.244Z,5.90
2022-09-24T08:17:54.305Z,6.00
2022-09-24T08:19:30.914Z,6.07
2022-09-24T08:21:05.961Z,5.93
2022-09-24T08:22:39.077Z,6.37
2022-09-24T08:24:13.520Z,6.30
2022-09-24T08:25:46.573Z,6.33
2022-09-24T08:27:20.389Z,6.17
2022-09-24T08:28:53.412Z,6.07
2022-09-24T08:30:26.921Z,6.27
2022-09-24T08:31:59.953Z,5.20
2022-09-24T08:33:34.333Z,6.20
2022-09-24T08:35:09.985Z,5.93
2022-09-24T08:36:43.476Z,5.70
2022-09-24T08:38:16.598Z,5.70
2022-09-24T08:39:49.697Z,6.10
2022-09-24T08:41:39.889Z,6.20
2022-09-24T08:43:25.135Z,5.57
2022-09-24T08:45:17.854Z,6.07
2022-09-24T08:47:11.510Z,6.30
2022-09-24T08:48:49.156Z,5.90
2022-09-24T08:50:25.693Z,5.43
2022-09-24T08:52:06.141Z,5.37
2022-09-24T08:53:47.929Z,5.70
2022-09-24T08:55:25.300Z,6.03
2022-09-24T08:57:00.726Z,5.53
2022-09-24T08:58:44.484Z,5.60
2022-09-24T09:00:18.055Z,5.73
2022-09-24T09:02:01.485Z,5.90
2022-09-24T09:03:38.432Z,6.00
2022-09-24T09:05:24.029Z,6.53
2022-09-24T09:07:13.934Z,5.67
2022-09-24T09:09:16.760Z,5.30
2022-09-24T09:10:46.355Z,5.60
2022-09-24T09:12:24.716Z,5.47
2022-09-24T09:14:01.293Z,5.30
2022-09-24T09:15:39.689Z,5.53
2022-09-24T09:17:24.421Z,4.60
2022-09-24T09:19:04.971Z,5.67
2022-09-24T09:20:42.593Z,5.60
2022-09-24T09:22:18.298Z,5.30
2022-09-24T09:23:52.797Z,5.57
2022-09-24T09:25:28.530Z,5.17
2022-09-24T09:27:01.476Z,5.70
2022-09-24T09:28:34.713Z,5.20
2022-09-24T09:30:14.492Z,5.53
2022-09-24T09:31:59.580Z,5.33
2022-09-24T09:33:44.397Z,5.50
2022-09-24T09:35:23.586Z,5.43
2022-09-24T09:37:11.888Z,5.17
2022-09-24T09:38:54.634Z,5.10
2022-09-24T09:40:34.781Z,5.07
2022-09-24T09:42:28.124Z,5.67
2022-09-24T09:44:10.859Z,5.53
2022-09-24T09:45:56.356Z,5.23
2022-09-24T09:47:41.261Z,5.43
2022-09-24T09:49:15.637Z,5.00
2022-09-24T09:50:51.513Z,5.10
2022-09-24T09:52:29.689Z,5.20
2022-09-24T09:54:05.239Z,4.80
2022-09-24T09:55:39.500Z,4.93
2022-09-24T09:57:17.583Z,4.93
2022-09-24T09:58:55.724Z,5.57
2022-09-24T10:00:35.212Z,4.80
2022-09-24T10:02:12.679Z,5.43
2022-09-24T10:03:50.601Z,4.80
2022-09-24T10:05:28.534Z,4.53
2022-09-24T10:07:09.976Z,4.57
2022-09-24T10:08:42.988Z,4.67
2022-09-24T10:10:23.533Z,4.70
2022-09-24T10:12:08.004Z,4.23
2022-09-24T10:13:41.044Z,4.23
2022-09-24T10:15:18.944Z,4.83
2022-09-24T10:16:55.901Z,4.00
2022-09-24T10:18:32.810Z,4.20
2022-09-24T10:20:11.420Z,3.63
2022-09-24T10:21:44.803Z,4.33
2022-09-24T10:23:22.315Z,4.20
2022-09-24T10:24:58.085Z,4.27
2022-09-24T10:26:44.838Z,3.90
2022-09-24T10:28:43.447Z,4.03
2022-09-24T10:30:36.592Z,3.63
2022-09-24T10:32:22.331Z,3.33
2022-09-24T10:33:58.469Z,4.10
2022-09-24T10:35:35.638Z,3.60
2022-09-24T10:37:16.052Z,3.80
2022-09-24T10:38:49.780Z,3.60
2022-09-24T10:40:25.719Z,3.30
2022-09-24T10:42:00.225Z,4.23
2022-09-24T10:43:33.465Z,3.60
2022-09-24T10:45:14.241Z,3.50
2022-09-24T10:47:01.161Z,3.80
2022-09-24T10:48:43.254Z,3.80
2022-09-24T10:50:28.566Z,3.57
2022-09-24T10:52:12.808Z,4.10
2022-09-24T10:53:55.236Z,3.37
2022-09-24T10:55:39.102Z,3.63
2022-09-24T10:57:26.319Z,3.37
2022-09-24T10:59:20.368Z,2.90
2022-09-24T11:01:05.432Z,3.33
2022-09-24T11:03:17.310Z,3.73
2022-09-24T11:04:54.885Z,3.20
2022-09-24T11:06:43.541Z,3.47
2022-09-24T11:08:28.785Z,3.40
2022-09-24T11:10:11.641Z,3.40
2022-09-24T11:11:56.973Z,3.30
2022-09-24T11:13:40.740Z,3.20
2022-09-24T11:15:28.853Z,2.80
2022-09-24T11:17:21.524Z,3.00
2022-09-24T11:19:01.082Z,3.27
2022-09-24T11:20:37.980Z,3.00
2022-09-24T11:22:15.529Z,3.20
2022-09-24T11:24:04.205Z,2.97
2022-09-24T11:25:45.303Z,2.97
2022-09-24T11:27:51.325Z,2.50
2022-09-24T11:29:58.594Z,2.93
2022-09-24T11:31:39.908Z,2.63
2022-09-24T11:33:26.933Z,2.60
2022-09-24T11:35:20.087Z,3.20
2022-09-24T11:37:08.651Z,2.83
2022-09-24T11:38:56.218Z,2.57
2022-09-24T11:40:41.423Z,2.80
2022-09-24T11:42:23.586Z,2.50
2022-09-24T11:44:22.201Z,3.07
2022-09-24T11:46:18.064Z,2.60
2022-09-24T11:48:07.290Z,2.40
2022-09-24T11:49:54.913Z,2.20
2022-09-24T11:51:37.938Z,2.13
2022-09-24T11:53:16.030Z,3.50
2022-09-24T11:54:59.033Z,2.53
2022-09-24T11:56:35.857Z,2.70
2022-09-24T11:58:16.685Z,2.93
2022-09-24T11:59:54.327Z,2.70
2022-09-24T12:01:32.201Z,2.53
2022-09-24T12:03:13.690Z,2.70
2022-09-24T12:04:59.182Z,2.53
2022-09-24T12:06:37.094Z,2.77
2022-09-24T12:08:14.320Z,3.07
2022-09-24T12:09:52.637Z,2.60
2022-09-24T12:11:33.008Z,2.57
2022-09-24T12:13:13.877Z,2.60
2022-09-24T12:14:52.599Z,2.70
2022-09-24T12:16:30.620Z,3.10
2022-09-24T12:18:08.923Z,2.50
2022-09-24T12:19:50.828Z,2.63
2022-09-24T12:21:28.935Z,2.60
2022-09-24T12:23:07.899Z,2.30
2022-09-24T12:24:46.200Z,6.90
2022-09-24T12:26:22.574Z,2.97
2022-09-24T12:27:56.549Z,2.50
2022-09-24T12:29:58.561Z,2.80
2022-09-24T12:32:00.914Z,3.10
2022-09-24T12:33:41.837Z,2.93
2022-09-24T12:35:23.811Z,2.70
2022-09-24T12:37:02.537Z,2.97
2022-09-24T12:38:40.705Z,2.70
2022-09-24T12:40:31.382Z,2.70
2022-09-24T12:42:08.348Z,2.50
2022-09-24T12:43:46.802Z,2.60
2022-09-24T12:45:23.431Z,2.70
2022-09-24T12:47:00.214Z,2.50
2022-09-24T12:48:37.552Z,2.53
2022-09-24T12:50:22.650Z,2.80
2022-09-24T12:51:58.173Z,2.70
2022-09-24T12:53:35.737Z,2.60
2022-09-24T12:55:21.720Z,2.83
2022-09-24T12:57:10.718Z,3.10
2022-09-24T12:58:46.600Z,2.47
2022-09-24T13:00:38.711Z,2.70
2022-09-24T13:02:19.347Z,3.00
2022-09-24T13:04:03.505Z,3.10
2022-09-24T13:05:48.958Z,2.40
2022-09-24T13:07:34.181Z,2.40
2022-09-24T13:09:27.698Z,2.60
2022-09-24T13:11:05.713Z,2.67
2022-09-24T13:12:38.862Z,2.70
2022-09-24T13:14:23.149Z,3.10
2022-09-24T13:16:05.406Z,2.57
2022-09-24T13:17:39.986Z,2.40
2022-09-24T13:19:25.216Z,2.13
2022-09-24T13:21:01.732Z,2.80
2022-09-24T13:22:37.037Z,2.30
2022-09-24T13:24:12.786Z,2.40
2022-09-24T13:25:56.599Z,2.37
2022-09-24T13:27:37.720Z,2.30
2022-09-24T13:29:25.522Z,2.37
2022-09-24T13:31:04.543Z,2.20
2022-09-24T13:32:46.015Z,2.17
2022-09-24T13:34:22.932Z,2.40
2022-09-24T13:36:11.626Z,2.70
2022-09-24T13:37:51.882Z,2.77
2022-09-24T13:39:30.596Z,2.63
2022-09-24T13:41:15.284Z,2.50
2022-09-24T13:42:53.731Z,2.70
2022-09-24T13:44:31.556Z,2.57
2022-09-24T13:46:09.128Z,2.70
2022-09-24T13:47:46.164Z,2.40
2022-09-24T13:49:21.662Z,2.17
2022-09-24T13:50:55.196Z,2.70
2022-09-24T13:52:32.093Z,2.57
2022-09-24T13:54:14.196Z,2.20
2022-09-24T13:55:49.365Z,2.70
2022-09-24T13:57:25.229Z,2.73
2022-09-24T13:59:07.172Z,3.20
2022-09-24T14:00:44.060Z,2.90
2022-09-24T14:02:25.444Z,2.80
2022-09-24T14:04:03.006Z,2.70
2022-09-24T14:05:37.398Z,2.60
2022-09-24T14:07:11.138Z,2.97
2022-09-24T14:08:46.148Z,2.90
2022-09-24T14:10:20.156Z,3.53
2022-09-24T14:11:55.177Z,2.80
2022-09-24T14:13:28.700Z,3.08
2022-09-24T14:15:04.450Z,3.10
2022-09-24T14:16:37.513Z,2.80
2022-09-24T14:18:15.752Z,2.90
2022-09-24T14:19:56.009Z,3.13
2022-09-24T14:21:34.297Z,3.40
2022-09-24T14:23:07.671Z,3.60
2022-09-24T14:24:45.858Z,3.40
2022-09-24T14:26:32.750Z,3.20
2022-09-24T14:28:06.752Z,4.10
2022-09-24T14:29:48.504Z,3.50
2022-09-24T14:31:21.926Z,5.60
2022-09-24T14:32:58.115Z,7.20
2022-09-24T14:34:35.825Z,4.00
2022-09-24T14:36:12.433Z,3.80
2022-09-24T14:37:50.156Z,3.93
2022-09-24T14:39:26.355Z,3.93
2022-09-24T14:41:03.343Z,3.80
2022-09-24T14:42:41.375Z,4.00
2022-09-24T14:44:22.092Z,3.97
2022-09-24T14:46:03.151Z,4.67
2022-09-24T14:47:38.116Z,4.30
2022-09-24T14:49:21.513Z,4.03
2022-09-24T14:50:54.593Z,4.17
2022-09-24T14:52:31.937Z,4.40
2022-09-24T14:54:29.560Z,4.00
2022-09-24T14:56:20.326Z,4.50
2022-09-24T14:57:57.642Z,4.30
2022-09-24T14:59:37.025Z,4.40
2022-09-24T15:01:16.355Z,4.70
2022-09-24T15:02:53.074Z,4.90
2022-09-24T15:04:29.094Z,5.03
2022-09-24T15:06:19.218Z,4.67
2022-09-24T15:07:52.672Z,5.17
2022-09-24T15:09:27.957Z,4.90
2022-09-24T15:11:04.749Z,5.13
2022-09-24T15:12:39.069Z,5.23
2022-09-24T15:14:25.173Z,5.43
2022-09-24T15:16:06.880Z,5.40
2022-09-24T15:17:40.045Z,5.53
2022-09-24T15:19:19.434Z,5.30
2022-09-24T15:20:52.598Z,5.47
2022-09-24T15:22:26.920Z,6.23
2022-09-24T15:24:00.082Z,5.43
2022-09-24T15:25:33.187Z,5.90
2022-09-24T15:27:22.335Z,5.87
2022-09-24T15:28:56.464Z,9.47
2022-09-24T15:30:29.520Z,6.03
2022-09-24T15:32:03.256Z,5.83
2022-09-24T15:33:36.493Z,5.70
2022-09-24T15:35:11.321Z,5.97
2022-09-24T15:36:44.638Z,5.80
2022-09-24T15:38:19.663Z,5.67
2022-09-24T15:39:53.505Z,6.23
2022-09-24T15:41:26.919Z,6.23
2022-09-24T15:43:02.355Z,6.40
2022-09-24T15:44:35.452Z,6.37
2022-09-24T15:46:08.532Z,6.13
2022-09-24T15:47:41.806Z,6.40
2022-09-24T15:49:16.316Z,6.40
2022-09-24T15:50:50.579Z,6.80
2022-09-24T15:52:26.994Z,6.60
2022-09-24T15:54:00.066Z,7.10
2022-09-24T15:55:35.579Z,7.77
2022-09-24T15:57:11.972Z,7.47
2022-09-24T15:58:46.790Z,7.20
2022-09-24T16:00:22.257Z,7.47
2022-09-24T16:01:58.769Z,7.10
2022-09-24T16:03:33.128Z,7.30
2022-09-24T16:05:12.390Z,7.60
2022-09-24T16:06:45.472Z,7.60
2022-09-24T16:08:18.745Z,7.87
2022-09-24T16:09:51.820Z,7.93
2022-09-24T16:11:24.892Z,8.03
2022-09-24T16:12:57.965Z,7.77
2022-09-24T16:14:32.490Z,7.47
2022-09-24T16:16:08.527Z,8.47
2022-09-24T16:17:41.760Z,9.73
2022-09-24T16:19:14.834Z,10.73
2022-09-24T16:20:48.418Z,11.63
2022-09-24T16:22:20.881Z,11.90
2022-09-24T16:23:55.764Z,11.57
2022-09-24T16:25:28.892Z,11.20
2022-09-24T16:27:02.297Z,11.63
2022-09-24T16:28:36.320Z,10.93
2022-09-24T16:30:11.807Z,10.83
2022-09-24T16:31:45.106Z,10.73
2022-09-24T16:33:18.164Z,10.70
2022-09-24T16:34:51.231Z,10.37
2022-09-24T16:36:24.525Z,10.10
2022-09-24T16:37:58.439Z,10.57
2022-09-24T16:39:31.469Z,11.90
2022-09-24T16:41:05.045Z,10.60
2022-09-24T16:42:38.068Z,11.10
2022-09-24T16:44:14.982Z,11.50
2022-09-24T16:45:49.431Z,11.37
2022-09-24T16:47:22.605Z,12.70
2022-09-24T16:48:55.724Z,19.37
2022-09-24T16:50:28.800Z,11.70
2022-09-24T16:52:01.315Z,10.60
2022-09-24T16:53:35.192Z,12.40
2022-09-24T16:55:09.625Z,11.80
2022-09-24T16:56:42.671Z,11.10
2022-09-24T16:58:15.768Z,11.43
2022-09-24T16:59:48.807Z,11.67
2022-09-24T17:01:23.972Z,12.67
2022-09-24T17:02:57.104Z,11.70
2022-09-24T17:04:30.243Z,11.80
2022-09-24T17:06:03.845Z,12.33
2022-09-24T17:07:37.118Z,12.10
2022-09-24T17:09:29.119Z,13.57
2022-09-24T17:11:02.157Z,12.80
2022-09-24T17:12:35.223Z,12.83
2022-09-24T17:14:08.678Z,13.40
2022-09-24T17:15:41.823Z,13.50
2022-09-24T17:17:16.481Z,13.40
2022-09-24T17:18:50.800Z,12.60
2022-09-24T17:20:24.700Z,13.53
2022-09-24T17:21:58.925Z,13.40
2022-09-24T17:23:32.219Z,12.80
2022-09-24T17:25:05.764Z,13.70
2022-09-24T17:26:39.372Z,13.03
2022-09-24T17:28:12.386Z,13.13
2022-09-24T17:29:45.696Z,13.87
2022-09-24T17:31:21.304Z,15.87
2022-09-24T17:32:56.238Z,15.47
2022-09-24T17:34:28.313Z,16.70
2022-09-24T17:36:03.893Z,18.67
2022-09-24T17:37:36.961Z,16.77
2022-09-24T17:39:12.493Z,16.43
2022-09-24T17:40:54.574Z,15.83
2022-09-24T17:42:27.763Z,15.27
2022-09-24T17:44:01.322Z,14.53
2022-09-24T17:45:34.357Z,14.30
2022-09-24T17:47:07.896Z,13.97
2022-09-24T17:48:44.532Z,14.27
2022-09-24T17:50:17.846Z,13.57
2022-09-24T17:51:50.909Z,12.97
2022-09-24T17:53:24.386Z,15.07
2022-09-24T17:54:57.623Z,14.30
2022-09-24T17:56:33.079Z,13.03
2022-09-24T17:58:06.137Z,13.63
2022-09-24T17:59:39.892Z,13.10
2022-09-24T18:01:13.764Z,15.03
2022-09-24T18:02:46.858Z,14.60
2022-09-24T18:04:22.531Z,15.13
2022-09-24T18:06:01.114Z,15.43
2022-09-24T18:07:34.210Z,15.83
2022-09-24T18:09:08.282Z,18.00
2022-09-24T18:10:41.424Z,15.80
2022-09-24T18:12:17.244Z,16.50
2022-09-24T18:13:52.210Z,15.67
2022-09-24T18:15:25.977Z,16.80
2022-09-24T18:16:59.850Z,15.97
2022-09-24T18:18:32.227Z,15.23
2022-09-24T18:20:07.623Z,15.60
2022-09-24T18:21:41.010Z,15.90
2022-09-24T18:23:14.055Z,15.23
2022-09-24T18:24:48.823Z,16.57
2022-09-24T18:26:22.367Z,15.50
2022-09-24T18:28:00.611Z,15.33
2022-09-24T18:29:34.711Z,15.30
2022-09-24T18:31:09.056Z,14.73
2022-09-24T18:32:45.374Z,15.30
2022-09-24T18:34:18.443Z,16.43
2022-09-24T18:35:52.860Z,16.33
2022-09-24T18:37:25.884Z,15.93
2022-09-24T18:38:58.926Z,15.63
2022-09-24T18:40:33.543Z,15.53
2022-09-24T18:42:06.730Z,15.37
2022-09-24T18:43:40.748Z,15.60
2022-09-24T18:45:13.933Z,15.90
2022-09-24T18:46:47.252Z,16.23
2022-09-24T18:48:20.945Z,16.17
2022-09-24T18:49:54.069Z,16.47
2022-09-24T18:51:30.241Z,15.33
2022-09-24T18:53:04.795Z,16.27
2022-09-24T18:54:37.844Z,16.23
2022-09-24T18:56:10.029Z,15.70
2022-09-24T18:57:43.074Z,15.53
2022-09-24T18:59:18.795Z,16.10
2022-09-24T19:00:51.327Z,17.40
2022-09-24T19:02:26.278Z,17.13
2022-09-24T19:04:01.120Z,16.00
2022-09-24T19:05:35.259Z,17.27
2022-09-24T19:07:10.115Z,17.50
2022-09-24T19:08:43.142Z,18.40
2022-09-24T19:10:16.247Z,19.43
2022-09-24T19:11:52.821Z,18.60
2022-09-24T19:13:26.792Z,18.67
2022-09-24T19:15:00.374Z,20.10
2022-09-24T19:16:33.774Z,19.37
2022-09-24T19:18:07.847Z,19.70
2022-09-24T19:19:40.892Z,19.40
2022-09-24T19:21:14.185Z,19.40
2022-09-24T19:22:50.083Z,18.70
2022-09-24T19:24:23.171Z,19.93
2022-09-24T19:26:01.496Z,21.30
2022-09-24T19:27:34.542Z,21.93
2022-09-24T19:29:07.637Z,21.17
2022-09-24T19:30:42.183Z,20.20
2022-09-24T19:32:15.598Z,20.93
2022-09-24T19:33:48.644Z,20.27
2022-09-24T19:35:21.690Z,20.93
2022-09-24T19:36:55.187Z,21.30
2022-09-24T19:38:31.235Z,20.43
2022-09-24T19:40:04.531Z,20.73
2022-09-24T19:41:37.757Z,21.03
2022-09-24T19:43:10.919Z,21.10
2022-09-24T19:44:44.060Z,20.67
2022-09-24T19:46:17.916Z,19.97
2022-09-24T19:47:51.949Z,19.43
2022-09-24T19:49:25.010Z,20.30
2022-09-24T19:51:01.917Z,20.93
2022-09-24T19:52:35.257Z,20.07
2022-09-24T19:54:11.636Z,19.50
2022-09-24T19:55:44.874Z,20.20
2022-09-24T19:57:18.153Z,20.33
2022-09-24T19:58:52.791Z,20.13
2022-09-24T20:00:25.856Z,20.57
2022-09-24T20:01:59.049Z,20.60
2022-09-24T20:03:32.771Z,19.77
2022-09-24T20:05:06.409Z,19.93
2022-09-24T20:06:40.046Z,20.80
2022-09-24T20:08:14.744Z,19.47
2022-09-24T20:09:49.236Z,19.57
2022-09-24T20:11:24.741Z,20.50
2022-09-24T20:12:58.268Z,21.63
2022-09-24T20:14:33.691Z,22.33
2022-09-24T20:16:07.649Z,22.30
2022-09-24T20:17:40.801Z,21.63
2022-09-24T20:19:14.722Z,21.10
2022-09-24T20:20:47.770Z,21.03
2022-09-24T20:22:20.781Z,21.73
2022-09-24T20:23:55.727Z,20.50
2022-09-24T20:25:47.705Z,21.37
2022-09-24T20:27:38.350Z,21.60
2022-09-24T20:29:13.129Z,19.10
2022-09-24T20:30:46.673Z,18.23
2022-09-24T20:32:20.229Z,18.77
2022-09-24T20:33:53.702Z,17.30
2022-09-24T20:35:26.891Z,16.37
2022-09-24T20:37:01.311Z,16.20
2022-09-24T20:38:34.556Z,16.10
2022-09-24T20:40:09.444Z,15.70
2022-09-24T20:41:44.110Z,15.30
2022-09-24T20:43:18.358Z,16.53
2022-09-24T20:44:51.729Z,16.87
2022-09-24T20:46:27.677Z,16.37
2022-09-24T20:48:00.925Z,16.50
2022-09-24T20:49:35.011Z,16.83
2022-09-24T20:51:09.718Z,15.60
2022-09-24T20:52:42.776Z,16.23
2022-09-24T20:54:16.094Z,15.57
2022-09-24T20:55:49.126Z,16.70
2022-09-24T20:57:23.518Z,18.53
2022-09-24T20:58:56.603Z,18.47
2022-09-24T21:00:35.488Z,19.17
2022-09-24T21:02:09.919Z,18.37
2022-09-24T21:03:44.869Z,17.07
2022-09-24T21:05:19.931Z,17.97
2022-09-24T21:06:53.781Z,18.20
2022-09-24T21:08:26.806Z,18.10
2022-09-24T21:10:00.422Z,16.90
2022-09-24T21:11:33.620Z,18.13
2022-09-24T21:13:09.783Z,18.83
2022-09-24T21:14:42.830Z,19.07